Lexington, Virginia
Current Conditions -  °F | °C
As of 2:35 PM on Tuesday 21 Oct 2014 (Local Time) from KHSP Reporting Station
Light Rain Light Rain  
Wind Chill: 40°   Ceiling: 300
Heat Index: 46°   Visibility: 0mi
Dew Point: 45°   Wind: 13mph
Humidity: 99%   Direction: 280°W
Pressure: 29.86"   Gusts: 22mph
Location:  37.79°N, 79.44°W
Report Text: KHSP 211835Z AUTO 28011G19KT M1/4SM -RA OVC003 08/07 A2986 RMK AO2 P0005 T00750073
Loading
Personal Weather Stations






























Interactive Weather Map
Tropical Storm Tracking
New forecast layout! Learn more

10-Day Weather Forecast

Advertisements
Track Severe Weather on mobile